National Weather Service United States Department of Commerce

Moderating Temperatures for the East; Developing Storm for the Plains

Temperatures will continue to moderate across the east half of the nation through at least the first half of this week. A developing storm across the Southern Plains may bring some heavy rain from the Plains to the lower Great Lakes region, a wintry mixture and accumulating snow across the Midwest and Upper Mississippi Valley into mid-week. The west remains unsettled with occasional rain and snow. Read More >

CNY - Canyonlands, UT - Terminal Aerodrome Forecast (TAF)

FTUS45 KGJT 052339
TAFCNY
TAF
KCNY 052339Z 0600/0624 35008KT P6SM FEW200
     FM060300 30010KT P6SM SCT070
     FM060700 25009KT P6SM BKN080
     FM061500 29005KT P6SM FEW200
     FM061800 34007KT P6SM FEW200=

For a printable version click KCNY TAF